Time;durP1;ratioP1;P1;durP2;ratioP2;P2;SDS_P1;SDS_P2;PMS_P1;PMS_P2;Temp;Humidity;BMP_temperature;BMP_pressure;BME280_temperature;BME280_humidity;BME280_pressure;Samples;Min_cycle;Max_cycle;Signal;HPM_P1;HPM_P2
2023/10/13 00:01:58;;;;;;;19.08;13.55;;;18.30;90.20;;;;;;5091582;28;20023;-70
2023/10/13 00:04:28;;;;;;;18.20;12.93;;;18.30;90.20;;;;;;5094780;28;20084;-70
2023/10/13 00:06:57;;;;;;;19.92;14.00;;;18.30;90.20;;;;;;5092153;28;20452;-70
2023/10/13 00:09:33;;;;;;;19.42;14.77;;;18.30;90.20;;;;;;5092354;28;20051;-70
2023/10/13 00:12:00;;;;;;;18.90;12.77;;;18.30;90.20;;;;;;5100373;28;20173;-70
2023/10/13 00:14:34;;;;;;;17.33;11.80;;;18.40;90.20;;;;;;5091689;28;20509;-70
2023/10/13 00:17:05;;;;;;;16.27;12.45;;;18.40;90.20;;;;;;5092727;28;20134;-70
2023/10/13 00:19:46;;;;;;;17.58;11.55;;;18.40;90.10;;;;;;5092966;28;20036;-70
2023/10/13 00:22:16;;;;;;;15.43;11.40;;;18.40;90.10;;;;;;5090142;28;20364;-70
2023/10/13 00:24:45;;;;;;;15.75;11.57;;;18.40;90.10;;;;;;5097745;28;20329;-70
2023/10/13 00:27:41;;;;;;;17.85;11.55;;;18.40;90.10;;;;;;5077297;28;20062;-70
2023/10/13 00:30:21;;;;;;;17.25;11.52;;;18.40;90.10;;;;;;5104120;27;20048;-71
2023/10/13 00:32:56;;;;;;;15.00;10.27;;;18.40;90.10;;;;;;5091238;28;20409;-70
2023/10/13 00:35:28;;;;;;;15.93;12.18;;;18.40;90.10;;;;;;5087740;28;20024;-70
2023/10/13 00:37:54;;;;;;;17.52;12.20;;;18.30;90.10;;;;;;5092761;28;20026;-70
2023/10/13 00:43:31;;;;;;;16.88;11.57;;;18.30;90.10;;;;;;5092815;28;20024;-70
2023/10/13 00:48:33;;;;;;;16.90;10.82;;;18.30;90.10;;;;;;5091203;28;20134;-70
2023/10/13 00:51:18;;;;;;;17.52;10.90;;;18.30;90.10;;;;;;5090559;28;20453;-70
2023/10/13 00:53:47;;;;;;;15.55;10.98;;;18.40;90.10;;;;;;5085351;28;20028;-71
2023/10/13 00:56:26;;;;;;;14.60;10.23;;;18.30;90.10;;;;;;5090876;28;20067;-70
2023/10/13 00:58:57;;;;;;;15.98;10.35;;;18.40;90.10;;;;;;5091034;28;20720;-70
2023/10/13 01:01:34;;;;;;;15.05;9.82;;;18.40;90.10;;;;;;5088135;28;20012;-70
2023/10/13 01:04:03;;;;;;;15.50;10.45;;;18.30;90.10;;;;;;5089892;28;20378;-70
2023/10/13 01:06:29;;;;;;;14.60;10.48;;;18.40;90.10;;;;;;5074647;28;20039;-70
2023/10/13 01:08:59;;;;;;;15.18;11.05;;;18.40;90.40;;;;;;5099277;28;20062;-70
2023/10/13 01:11:29;;;;;;;16.90;10.65;;;18.40;90.10;;;;;;5072308;28;20039;-70
2023/10/13 01:13:56;;;;;;;17.05;11.38;;;18.30;90.10;;;;;;5093247;28;20111;-70
2023/10/13 01:16:26;;;;;;;16.67;11.48;;;18.30;90.10;;;;;;5089853;28;20527;-70
2023/10/13 01:18:53;;;;;;;14.93;10.93;;;18.30;90.10;;;;;;5093534;28;20035;-70
2023/10/13 01:21:27;;;;;;;14.98;10.63;;;18.30;90.10;;;;;;5092813;28;20035;-70
2023/10/13 01:23:53;;;;;;;15.88;11.00;;;18.30;90.20;;;;;;5089628;28;20345;-70
2023/10/13 01:26:26;;;;;;;14.60;11.02;;;18.30;90.10;;;;;;5091180;28;20356;-70
2023/10/13 01:28:56;;;;;;;15.07;10.82;;;18.40;90.20;;;;;;5094778;28;20031;-70
2023/10/13 01:31:27;;;;;;;14.55;10.05;;;18.40;90.10;;;;;;5090549;28;20035;-70
2023/10/13 01:33:54;;;;;;;15.17;10.57;;;18.40;90.10;;;;;;5095240;28;20043;-70
2023/10/13 01:36:21;;;;;;;17.70;9.95;;;18.40;90.10;;;;;;5076668;28;20603;-70
2023/10/13 01:38:49;;;;;;;14.80;10.68;;;18.40;90.10;;;;;;5089439;28;20044;-70
2023/10/13 01:41:16;;;;;;;15.90;10.27;;;18.40;90.10;;;;;;5089703;28;20448;-70
2023/10/13 01:43:42;;;;;;;15.57;10.60;;;18.40;90.10;;;;;;5087305;28;20470;-70
2023/10/13 01:46:09;;;;;;;12.35;9.50;;;18.40;90.10;;;;;;5092093;28;20448;-70
2023/10/13 01:48:40;;;;;;;13.82;9.85;;;18.40;90.10;;;;;;5087512;28;20032;-70
2023/10/13 01:51:09;;;;;;;14.30;9.65;;;18.40;90.10;;;;;;5090349;28;20020;-70
2023/10/13 01:53:36;;;;;;;12.73;8.98;;;18.40;90.10;;;;;;5096464;28;20360;-70
2023/10/13 01:56:09;;;;;;;13.57;8.77;;;18.40;90.10;;;;;;5089708;28;20052;-70
2023/10/13 01:58:42;;;;;;;15.18;9.55;;;18.40;90.10;;;;;;5083353;28;20371;-70
2023/10/13 02:01:13;;;;;;;14.95;9.13;;;18.40;90.10;;;;;;5076554;28;20016;-70
2023/10/13 02:03:48;;;;;;;12.27;8.73;;;18.40;90.10;;;;;;5092143;28;20086;-70
2023/10/13 02:06:17;;;;;;;13.30;8.75;;;18.40;90.10;;;;;;5073139;28;20062;-70
2023/10/13 02:08:47;;;;;;;12.38;9.10;;;18.40;90.10;;;;;;5089473;28;20115;-70
2023/10/13 02:11:14;;;;;;;14.27;8.90;;;18.40;90.10;;;;;;5093007;28;20032;-70
2023/10/13 02:13:48;;;;;;;15.20;8.57;;;18.40;90.10;;;;;;5090082;28;20031;-70
2023/10/13 02:16:18;;;;;;;13.63;8.43;;;18.40;90.10;;;;;;5090423;28;20498;-70
2023/10/13 02:18:44;;;;;;;13.63;8.55;;;18.30;90.10;;;;;;5087631;28;20052;-70
2023/10/13 02:21:13;;;;;;;13.40;8.10;;;18.40;90.10;;;;;;5096836;28;20106;-70
2023/10/13 02:23:46;;;;;;;14.88;8.98;;;18.40;90.10;;;;;;5087691;28;20111;-70
2023/10/13 02:26:15;;;;;;;11.48;7.97;;;18.40;90.10;;;;;;5072480;28;20057;-70
2023/10/13 02:28:41;;;;;;;12.48;8.25;;;18.30;90.00;;;;;;5092217;28;20115;-70
2023/10/13 02:31:07;;;;;;;13.80;7.97;;;18.40;90.10;;;;;;5088729;28;20105;-70
2023/10/13 02:33:34;;;;;;;13.88;7.53;;;18.40;90.10;;;;;;5090364;28;20032;-70
2023/10/13 02:36:05;;;;;;;11.55;7.97;;;18.30;90.10;;;;;;5088707;28;20101;-70
2023/10/13 02:41:28;;;;;;;10.98;6.85;;;18.30;90.10;;;;;;5089375;28;19962;-70
2023/10/13 02:43:55;;;;;;;11.70;7.13;;;18.30;90.10;;;;;;5073637;28;20020;-70
2023/10/13 02:46:23;;;;;;;12.30;7.30;;;18.30;90.10;;;;;;5089257;28;20444;-70
2023/10/13 02:48:53;;;;;;;11.35;7.20;;;18.30;90.10;;;;;;5090426;28;20032;-70
2023/10/13 02:51:36;;;;;;;13.90;7.82;;;18.30;90.10;;;;;;5075635;28;20030;-70
2023/10/13 02:54:09;;;;;;;14.27;7.55;;;18.30;90.10;;;;;;5093479;28;20774;-70
2023/10/13 02:56:36;;;;;;;12.70;7.22;;;18.30;90.10;;;;;;5076872;28;20111;-70
2023/10/13 02:59:05;;;;;;;12.07;6.97;;;18.30;90.10;;;;;;5097232;28;20016;-70
2023/10/13 03:01:35;;;;;;;10.40;6.90;;;18.30;90.10;;;;;;5101187;28;20023;-68
2023/10/13 03:04:03;;;;;;;10.70;6.53;;;18.30;90.10;;;;;;5094779;28;20098;-68
2023/10/13 03:06:32;;;;;;;13.63;7.20;;;18.30;90.10;;;;;;5078392;28;20415;-68
2023/10/13 03:09:26;;;;;;;10.27;6.35;;;18.30;90.10;;;;;;5079607;28;20116;-70
2023/10/13 03:11:52;;;;;;;11.43;6.30;;;18.30;90.10;;;;;;5078614;28;20084;-70
2023/10/13 03:14:32;;;;;;;12.55;6.65;;;18.30;90.10;;;;;;5079655;28;20039;-70
2023/10/13 03:17:06;;;;;;;11.23;6.65;;;18.30;90.10;;;;;;5099446;28;20062;-70
2023/10/13 03:19:32;;;;;;;9.07;5.70;;;18.30;90.10;;;;;;5098805;28;20020;-70
2023/10/13 03:22:15;;;;;;;12.77;6.00;;;18.30;90.10;;;;;;5098250;28;20039;-70
2023/10/13 03:24:48;;;;;;;12.35;6.38;;;18.30;90.10;;;;;;5098893;28;20020;-70
2023/10/13 03:27:22;;;;;;;12.50;6.03;;;18.30;90.10;;;;;;5097675;28;20095;-70
2023/10/13 03:29:53;;;;;;;9.30;5.97;;;18.20;90.10;;;;;;5097636;28;20573;-70
2023/10/13 03:32:20;;;;;;;;;;;18.30;90.10;;;;;;5099912;28;20015;-70
2023/10/13 03:34:53;;;;;;;10.30;4.95;;;18.20;90.10;;;;;;5092864;28;19951;-70
2023/10/13 03:37:37;;;;;;;10.02;5.13;;;18.30;90.10;;;;;;5095376;28;20020;-70
2023/10/13 03:40:56;;;;;;;10.75;5.43;;;18.20;90.10;;;;;;5082223;28;20061;-70
2023/10/13 03:43:04;;;;;;;11.10;5.30;;;18.20;90.10;;;;;;5086039;28;20036;-70
2023/10/13 03:45:39;;;;;;;11.07;5.40;;;18.20;90.10;;;;;;5110292;28;20043;-70
2023/10/13 03:51:03;;;;;;;9.63;5.25;;;18.20;90.10;;;;;;5094112;28;20031;-71
2023/10/13 03:53:33;;;;;;;12.43;6.45;;;18.20;90.10;;;;;;5098637;28;20031;-70
2023/10/13 03:56:08;;;;;;;9.40;6.35;;;18.20;90.10;;;;;;5092782;28;20023;-70
2023/10/13 03:58:46;;;;;;;12.48;6.85;;;18.20;90.10;;;;;;5081330;28;20039;-70
2023/10/13 04:01:16;;;;;;;9.75;6.85;;;18.20;90.10;;;;;;5095734;28;20409;-70
2023/10/13 04:03:57;;;;;;;12.85;6.90;;;18.20;90.20;;;;;;5098644;28;20050;-70
2023/10/13 04:06:48;;;;;;;12.32;7.88;;;18.20;90.20;;;;;;5093322;28;20356;-70
2023/10/13 04:17:15;;;;;;;12.85;7.47;;;18.20;90.20;;;;;;5101768;28;20693;-70
2023/10/13 04:28:15;;;;;;;12.57;7.82;;;18.20;90.30;;;;;;5095752;28;20464;-70
2023/10/13 04:33:35;;;;;;;11.38;7.63;;;18.20;90.30;;;;;;5095047;28;20020;-68
2023/10/13 04:36:36;;;;;;;12.43;7.55;;;18.20;90.30;;;;;;5098097;28;20410;-68
2023/10/13 04:41:39;;;;;;;11.90;7.88;;;18.20;90.30;;;;;;5093199;28;20062;-68
2023/10/13 04:57:47;;;;;;;16.00;8.80;;;18.20;90.30;;;;;;5096739;28;20030;-69
2023/10/13 05:05:45;;;;;;;16.75;9.00;;;18.20;90.40;;;;;;5098991;28;20452;-69
2023/10/13 05:49:20;;;;;;;13.43;7.45;;;18.60;90.60;;;;;;5101456;28;21586;-69
2023/10/13 05:51:47;;;;;;;13.63;7.22;;;18.70;90.60;;;;;;5099425;28;20146;-70
2023/10/13 06:30:00;;;;;;;10.27;6.82;;;18.80;90.60;;;;;;5090308;28;20020;-68
2023/10/13 06:32:27;;;;;;;13.88;7.18;;;18.90;90.60;;;;;;5094629;28;20460;-69
2023/10/13 06:35:22;;;;;;;10.98;6.50;;;18.80;90.60;;;;;;5094305;28;20123;-69
2023/10/13 06:37:49;;;;;;;9.18;6.00;;;18.90;90.60;;;;;;5091982;28;20039;-69
2023/10/13 06:43:12;;;;;;;10.82;6.10;;;18.90;90.60;;;;;;5087515;28;20016;-66
2023/10/13 06:45:39;;;;;;;10.95;6.03;;;18.90;90.60;;;;;;5076333;28;20016;-69
2023/10/13 06:48:06;;;;;;;10.05;5.60;;;18.90;90.60;;;;;;5091796;28;20024;-69
2023/10/13 06:50:39;;;;;;;9.40;5.65;;;19.00;90.60;;;;;;5094622;28;20340;-68
2023/10/13 06:53:05;;;;;;;11.50;5.72;;;19.00;90.60;;;;;;5076462;28;20036;-68
2023/10/13 06:55:35;;;;;;;11.18;5.35;;;19.00;90.60;;;;;;5092351;28;20101;-68
2023/10/13 06:58:01;;;;;;;8.35;5.55;;;19.00;90.60;;;;;;5092061;28;20031;-69
2023/10/13 07:00:29;;;;;;;10.60;5.38;;;19.00;90.60;;;;;;5092588;28;20086;-69
2023/10/13 07:03:05;;;;;;;9.57;5.18;;;19.00;90.90;;;;;;5092209;28;20039;-69
2023/10/13 07:05:43;;;;;;;8.68;5.15;;;19.00;90.60;;;;;;5091600;28;20039;-68
2023/10/13 07:08:13;;;;;;;10.85;5.88;;;19.00;90.60;;;;;;5073906;28;20020;-69
2023/10/13 07:11:01;;;;;;;9.32;5.28;;;19.00;90.60;;;;;;5091785;28;20032;-68
2023/10/13 07:13:28;;;;;;;10.98;5.53;;;19.00;90.60;;;;;;5092103;28;20036;-69
2023/10/13 07:15:59;;;;;;;12.82;6.05;;;19.00;90.60;;;;;;5092139;28;20131;-69
2023/10/13 07:18:26;;;;;;;10.43;5.28;;;19.10;90.60;;;;;;5092254;28;20031;-69
2023/10/13 07:20:57;;;;;;;9.85;5.13;;;19.10;90.60;;;;;;5091922;28;20119;-69
2023/10/13 07:23:24;;;;;;;10.38;5.43;;;19.10;90.60;;;;;;5109223;28;20030;-69
2023/10/13 07:26:03;;;;;;;11.90;6.00;;;19.10;90.60;;;;;;5089938;28;20047;-69
2023/10/13 07:28:36;;;;;;;11.52;5.53;;;19.10;90.60;;;;;;5084013;28;20341;-69
2023/10/13 07:33:31;;;;;;;11.85;6.38;;;19.10;90.60;;;;;;5095418;28;20036;-70
2023/10/13 07:36:01;;;;;;;13.35;6.72;;;19.10;90.60;;;;;;5092767;28;20363;-70
2023/10/13 07:38:30;;;;;;;11.13;6.10;;;19.10;90.60;;;;;;5093277;28;20024;-69
2023/10/13 07:41:06;;;;;;;11.20;6.10;;;19.10;90.60;;;;;;5110229;28;20471;-70
2023/10/13 07:43:33;;;;;;;12.55;6.28;;;19.10;90.60;;;;;;5101465;28;20034;-70
2023/10/13 07:46:06;;;;;;;14.07;6.15;;;19.10;90.50;;;;;;5093287;28;20039;-70
2023/10/13 07:48:33;;;;;;;10.77;6.53;;;19.10;90.50;;;;;;5079959;28;20024;-71
2023/10/13 07:51:02;;;;;;;10.68;6.28;;;19.10;90.50;;;;;;5094527;28;20051;-69
2023/10/13 07:53:34;;;;;;;13.48;6.30;;;19.10;90.50;;;;;;5097754;28;20439;-68
2023/10/13 07:56:04;;;;;;;11.80;6.10;;;19.10;90.50;;;;;;5085092;28;20030;-69
2023/10/13 07:58:34;;;;;;;9.70;5.88;;;19.10;90.50;;;;;;5099518;28;20016;-71
2023/10/13 08:01:06;;;;;;;10.93;5.90;;;19.20;90.50;;;;;;5098521;28;20074;-71
2023/10/13 08:03:45;;;;;;;10.85;5.45;;;19.10;90.40;;;;;;5098570;28;20040;-70
2023/10/13 08:08:43;;;;;;;12.30;6.22;;;19.10;90.40;;;;;;5094666;28;20539;-75
2023/10/13 08:13:58;;;;;;;13.52;6.20;;;19.20;90.40;;;;;;5093999;28;20059;-70
2023/10/13 08:19:44;;;;;;;13.80;5.82;;;19.20;90.40;;;;;;5016877;28;20026;-70
2023/10/13 08:39:58;;;;;;;11.80;6.05;;;19.50;90.20;;;;;;5096669;28;20389;-70
2023/10/13 08:42:52;;;;;;;12.80;6.28;;;19.50;90.20;;;;;;5097253;28;20024;-70
2023/10/13 08:47:54;;;;;;;14.95;6.28;;;19.50;90.10;;;;;;5096735;28;20123;-70
2023/10/13 08:50:47;;;;;;;13.43;5.93;;;19.60;90.00;;;;;;5095547;28;20449;-71
2023/10/13 08:53:26;;;;;;;13.88;6.13;;;19.70;90.00;;;;;;5097237;28;20054;-70
2023/10/13 08:56:15;;;;;;;13.27;6.53;;;19.70;89.90;;;;;;5097346;28;20410;-70
2023/10/13 09:04:22;;;;;;;12.90;6.43;;;19.80;89.60;;;;;;5060693;28;20047;-70
2023/10/13 09:12:25;;;;;;;14.32;6.50;;;19.80;89.30;;;;;;5096869;28;20032;-70
2023/10/13 09:15:05;;;;;;;15.18;6.40;;;19.90;89.30;;;;;;5096905;28;20024;-70
2023/10/13 09:17:34;;;;;;;11.73;5.90;;;19.90;89.10;;;;;;5094859;28;20123;-70
2023/10/13 09:25:35;;;;;;;12.80;6.10;;;20.00;88.70;;;;;;5096400;28;20107;-70
2023/10/13 09:28:25;;;;;;;10.82;6.18;;;20.10;88.50;;;;;;5094635;28;20360;-70
2023/10/13 09:30:58;;;;;;;12.70;5.70;;;20.10;88.30;;;;;;5095377;28;20375;-70
2023/10/13 09:33:32;;;;;;;15.65;6.38;;;20.10;88.20;;;;;;5095489;28;20401;-70
2023/10/13 09:36:04;;;;;;;11.75;6.07;;;20.10;88.20;;;;;;5096243;28;20036;-70
2023/10/13 09:38:48;;;;;;;11.80;6.47;;;20.10;88.20;;;;;;5094605;28;20050;-70
2023/10/13 09:41:25;;;;;;;13.63;6.43;;;20.10;88.20;;;;;;5094870;28;20032;-70
2023/10/13 09:43:52;;;;;;;12.65;6.20;;;20.00;88.10;;;;;;5095384;28;20028;-70
2023/10/13 09:46:26;;;;;;;13.43;6.03;;;20.00;88.10;;;;;;5096472;28;20062;-70
2023/10/13 09:49:07;;;;;;;13.02;6.38;;;20.00;88.00;;;;;;5094266;28;20028;-70
2023/10/13 09:51:33;;;;;;;13.38;6.43;;;20.00;87.90;;;;;;5078414;28;20541;-70
2023/10/13 09:54:09;;;;;;;12.23;6.40;;;20.00;87.90;;;;;;5093756;28;20044;-70
2023/10/13 09:56:55;;;;;;;13.35;5.40;;;20.00;87.70;;;;;;5095689;28;20039;-70
2023/10/13 09:59:35;;;;;;;10.48;5.43;;;20.00;87.60;;;;;;5080945;28;20020;-70
2023/10/13 10:02:09;;;;;;;14.80;5.75;;;20.10;87.40;;;;;;5077915;28;20035;-70
2023/10/13 10:04:50;;;;;;;11.52;5.72;;;20.10;87.30;;;;;;5093339;28;20055;-70
2023/10/13 10:07:28;;;;;;;10.50;6.43;;;20.10;87.10;;;;;;5091125;28;20040;-70
2023/10/13 10:10:01;;;;;;;12.07;6.22;;;20.20;87.00;;;;;;5076851;28;20463;-70
2023/10/13 10:12:39;;;;;;;13.43;6.28;;;20.20;86.90;;;;;;5095404;28;20105;-70
2023/10/13 10:15:30;;;;;;;11.52;5.93;;;20.20;86.80;;;;;;5091817;28;20110;-69
2023/10/13 10:17:56;;;;;;;;;;;20.20;86.50;;;;;;5089434;28;20086;-70
2023/10/13 10:20:47;;;;;;;10.23;5.30;;;20.20;86.60;;;;;;5092975;28;19908;-71
2023/10/13 10:23:30;;;;;;;13.70;5.97;;;20.20;86.30;;;;;;5092289;28;20032;-71
2023/10/13 10:26:08;;;;;;;13.38;6.15;;;20.20;85.90;;;;;;5094653;28;20422;-69
2023/10/13 10:28:42;;;;;;;12.05;6.18;;;20.30;86.00;;;;;;5092906;28;20052;-70
2023/10/13 10:31:17;;;;;;;15.73;6.45;;;20.30;85.60;;;;;;5095372;28;20057;-69
2023/10/13 10:33:43;;;;;;;12.00;5.80;;;20.30;85.40;;;;;;5093614;28;20028;-70
2023/10/13 10:36:14;;;;;;;12.85;5.97;;;20.30;85.30;;;;;;5090019;28;20020;-70
2023/10/13 10:38:59;;;;;;;11.40;5.57;;;20.30;85.20;;;;;;5076660;28;20028;-70
2023/10/13 10:41:37;;;;;;;12.98;6.03;;;20.30;85.00;;;;;;5093771;28;20057;-70
2023/10/13 10:44:09;;;;;;;11.50;5.57;;;20.30;85.00;;;;;;5092621;28;20394;-70
2023/10/13 10:46:42;;;;;;;;;;;20.30;84.90;;;;;;5094459;28;20085;-71
2023/10/13 10:49:08;;;;;;;12.23;5.35;;;20.30;85.00;;;;;;5090444;28;19915;-71
2023/10/13 10:51:43;;;;;;;13.13;6.15;;;20.30;84.80;;;;;;5093077;28;20067;-71
2023/10/13 10:54:19;;;;;;;13.98;6.05;;;20.40;84.50;;;;;;5086802;28;20035;-68
2023/10/13 10:56:52;;;;;;;14.02;5.95;;;20.40;84.30;;;;;;5085177;28;20086;-69
2023/10/13 10:59:19;;;;;;;14.93;6.70;;;20.40;84.10;;;;;;5091268;28;20451;-69
2023/10/13 11:01:52;;;;;;;11.18;6.13;;;20.40;83.90;;;;;;5074215;28;20035;-69
2023/10/13 11:04:24;;;;;;;11.77;6.28;;;20.50;83.80;;;;;;5092387;28;20449;-69
2023/10/13 11:06:58;;;;;;;14.60;6.30;;;20.50;83.60;;;;;;5089461;28;20024;-69
2023/10/13 11:09:32;;;;;;;13.10;5.80;;;20.50;83.20;;;;;;5091143;28;20444;-69
2023/10/13 11:12:25;;;;;;;13.38;6.45;;;20.60;83.20;;;;;;5101025;28;20042;-69
2023/10/13 11:15:23;;;;;;;11.50;6.15;;;20.60;82.90;;;;;;5073844;28;20124;-69
2023/10/13 11:17:56;;;;;;;13.57;7.32;;;20.70;82.80;;;;;;5090535;28;20360;-69
2023/10/13 11:20:44;;;;;;;13.85;6.60;;;20.80;82.60;;;;;;5072211;28;20051;-69
2023/10/13 11:23:15;;;;;;;17.00;6.78;;;20.80;83.20;;;;;;5095615;28;20036;-69
2023/10/13 11:25:44;;;;;;;15.18;6.30;;;20.80;82.30;;;;;;5092845;28;20043;-69
2023/10/13 11:28:17;;;;;;;12.95;5.90;;;20.80;82.20;;;;;;5096086;28;20119;-69
2023/10/13 11:30:50;;;;;;;13.73;5.93;;;20.80;82.10;;;;;;5082945;28;20471;-69
2023/10/13 11:33:23;;;;;;;15.43;6.60;;;20.80;82.00;;;;;;5082934;28;20486;-69
2023/10/13 11:38:25;;;;;;;11.50;6.28;;;20.70;82.00;;;;;;5081870;28;20035;-69
2023/10/13 11:43:35;;;;;;;14.30;6.22;;;20.70;80.80;;;;;;5094972;28;20042;-69
2023/10/13 11:48:34;;;;;;;14.05;6.47;;;20.80;80.10;;;;;;5083946;28;20035;-69
2023/10/13 11:51:02;;;;;;;14.85;6.47;;;20.80;79.90;;;;;;5104360;28;20052;-69
2023/10/13 11:53:28;;;;;;;13.75;6.03;;;20.80;79.50;;;;;;5083658;28;20060;-69
2023/10/13 11:55:56;;;;;;;15.02;7.10;;;20.90;79.40;;;;;;5079452;28;20028;-70
2023/10/13 11:58:21;;;;;;;16.48;6.43;;;20.90;79.30;;;;;;5080269;28;20025;-69
2023/10/13 12:01:01;;;;;;;11.88;5.93;;;20.90;79.10;;;;;;5079786;28;20452;-69
2023/10/13 12:06:35;;;;;;;13.75;6.18;;;20.90;79.00;;;;;;5096367;28;20036;-69
2023/10/13 12:12:00;;;;;;;12.57;5.90;;;21.00;78.60;;;;;;5059971;28;20040;-69
2023/10/13 12:14:52;;;;;;;18.42;7.30;;;21.00;78.40;;;;;;5081309;28;20046;-71
2023/10/13 12:17:25;;;;;;;14.50;6.53;;;21.10;78.10;;;;;;5083385;28;20044;-69
2023/10/13 12:19:54;;;;;;;12.10;5.72;;;21.10;77.80;;;;;;5080257;28;20166;-69
2023/10/13 12:22:38;;;;;;;11.23;6.35;;;21.20;77.60;;;;;;5077211;28;20441;-69
2023/10/13 12:25:24;;;;;;;14.18;6.07;;;21.20;77.40;;;;;;5081100;28;20025;-69
2023/10/13 12:27:56;;;;;;;12.27;6.30;;;21.30;77.40;;;;;;5079392;28;20021;-69
2023/10/13 12:30:35;;;;;;;15.23;6.72;;;21.30;77.50;;;;;;5082505;28;20016;-69
2023/10/13 12:33:09;;;;;;;12.95;6.78;;;21.20;77.30;;;;;;5079543;28;20070;-69
2023/10/13 12:49:49;;;;;;;13.82;6.20;;;21.30;76.80;;;;;;5078971;28;20484;-68
2023/10/13 12:52:25;;;;;;;;;;;21.30;76.80;;;;;;5088943;28;20032;-69
2023/10/13 12:57:30;;;;;;;13.55;6.53;;;21.30;76.80;;;;;;5077966;28;20032;-69
2023/10/13 12:59:56;;;;;;;16.80;6.40;;;21.30;76.70;;;;;;5079608;28;20059;-69
2023/10/13 13:02:24;;;;;;;11.90;6.25;;;21.30;76.60;;;;;;5078238;28;20024;-69
2023/10/13 13:04:54;;;;;;;13.95;6.32;;;21.30;76.60;;;;;;5078978;28;20039;-69
2023/10/13 13:07:20;;;;;;;12.77;5.50;;;21.30;76.60;;;;;;5076893;28;20021;-69
2023/10/13 13:09:46;;;;;;;15.75;7.13;;;21.30;76.40;;;;;;5080182;28;20052;-69
2023/10/13 13:12:12;;;;;;;13.32;6.35;;;21.30;76.20;;;;;;5083261;28;20032;-69
2023/10/13 13:14:44;;;;;;;15.82;6.95;;;21.40;76.10;;;;;;5091496;28;20039;-69
2023/10/13 13:17:10;;;;;;;14.70;6.75;;;21.40;75.90;;;;;;5079066;28;20076;-69
2023/10/13 13:19:40;;;;;;;14.00;7.20;;;21.40;75.90;;;;;;5084431;28;20105;-69
2023/10/13 13:22:11;;;;;;;14.80;6.57;;;21.40;75.90;;;;;;5077863;28;20029;-69
2023/10/13 13:24:45;;;;;;;15.18;7.47;;;21.40;75.80;;;;;;5075666;28;20048;-69
2023/10/13 13:27:17;;;;;;;13.10;5.97;;;21.40;75.60;;;;;;5087224;28;20414;-69
2023/10/13 13:29:46;;;;;;;15.25;6.13;;;21.40;75.50;;;;;;5083399;28;20037;-69
2023/10/13 13:32:24;;;;;;;14.38;6.13;;;21.40;75.50;;;;;;5071608;28;20116;-76
2023/10/13 13:34:57;;;;;;;17.00;6.68;;;21.40;75.50;;;;;;5097988;28;20036;-68
2023/10/13 13:37:27;;;;;;;16.95;6.82;;;21.40;75.60;;;;;;5097540;28;20035;-67
2023/10/13 13:39:52;;;;;;;19.13;6.80;;;21.40;75.50;;;;;;5098369;28;20081;-67
2023/10/13 13:42:20;;;;;;;14.65;5.72;;;21.40;75.50;;;;;;5096488;28;20036;-67
2023/10/13 13:44:49;;;;;;;12.70;5.35;;;21.40;75.60;;;;;;5097321;28;20016;-67
2023/10/13 13:47:15;;;;;;;12.70;6.13;;;21.30;75.50;;;;;;5096176;28;20036;-67
2023/10/13 13:49:46;;;;;;;15.98;5.90;;;21.30;75.60;;;;;;5094957;28;20114;-67
2023/10/13 13:52:17;;;;;;;14.40;6.00;;;21.30;75.80;;;;;;5095989;28;20035;-67
2023/10/13 13:54:44;;;;;;;13.50;5.40;;;21.30;75.90;;;;;;5096237;28;20379;-67
2023/10/13 13:57:09;;;;;;;13.50;5.70;;;21.30;76.00;;;;;;5096346;28;20063;-67
2023/10/13 13:59:36;;;;;;;16.63;5.80;;;21.30;76.00;;;;;;5095758;28;20047;-67
2023/10/13 14:02:19;;;;;;;12.00;5.95;;;21.20;76.10;;;;;;5097621;28;20034;-67
2023/10/13 14:04:50;;;;;;;12.38;6.10;;;21.20;76.10;;;;;;5077956;28;20446;-69
2023/10/13 14:07:19;;;;;;;;;;;21.20;76.20;;;;;;5100241;28;20032;-68
2023/10/13 14:09:51;;;;;;;11.13;5.60;;;21.20;76.30;;;;;;5079033;28;19907;-69
2023/10/13 14:12:36;;;;;;;10.98;5.28;;;21.20;76.20;;;;;;5097791;28;20059;-68
2023/10/13 14:15:03;;;;;;;13.50;4.80;;;21.20;76.10;;;;;;5094333;28;20032;-69
2023/10/13 14:17:35;;;;;;;14.82;5.70;;;21.20;76.00;;;;;;5084742;28;20383;-68
2023/10/13 14:20:09;;;;;;;12.80;5.43;;;21.20;76.00;;;;;;5100675;28;20027;-68
2023/10/13 14:22:37;;;;;;;14.57;5.72;;;21.20;75.90;;;;;;5095061;28;20333;-69
2023/10/13 14:25:08;;;;;;;14.60;5.22;;;21.20;76.00;;;;;;5094353;28;20032;-69
2023/10/13 14:27:35;;;;;;;10.52;5.25;;;21.20;76.10;;;;;;5080124;28;20103;-69
2023/10/13 14:30:02;;;;;;;14.43;4.85;;;21.10;76.00;;;;;;5098598;28;20113;-69
2023/10/13 14:32:28;;;;;;;11.55;5.28;;;21.10;76.20;;;;;;5112253;27;20016;-69
2023/10/13 14:34:55;;;;;;;13.15;5.65;;;21.10;76.30;;;;;;5095987;28;20404;-69
2023/10/13 14:37:31;;;;;;;12.60;4.78;;;21.10;76.40;;;;;;5098582;28;20103;-69
2023/10/13 14:39:59;;;;;;;11.60;5.10;;;21.10;76.40;;;;;;5094075;28;20027;-69
2023/10/13 14:42:28;;;;;;;11.85;5.57;;;21.10;76.40;;;;;;5095818;28;20027;-69
2023/10/13 14:44:57;;;;;;;13.95;6.20;;;21.10;76.40;;;;;;5098677;28;20080;-69
2023/10/13 14:47:25;;;;;;;13.80;5.25;;;21.10;76.50;;;;;;5094670;28;20064;-69
2023/10/13 14:49:55;;;;;;;15.88;5.38;;;21.00;76.60;;;;;;5108542;27;20127;-69
2023/10/13 14:52:22;;;;;;;13.38;5.03;;;21.00;76.70;;;;;;5096764;28;20337;-69
2023/10/13 14:54:54;;;;;;;13.05;5.47;;;21.00;76.90;;;;;;5089573;28;20359;-68
2023/10/13 14:57:27;;;;;;;11.43;4.88;;;21.00;77.00;;;;;;5092829;28;20742;-69
2023/10/13 14:59:57;;;;;;;13.27;5.50;;;21.00;77.20;;;;;;5091618;28;20031;-67
2023/10/13 15:02:23;;;;;;;13.27;6.35;;;20.90;77.30;;;;;;5098066;28;20027;-67
2023/10/13 15:04:49;;;;;;;12.27;5.55;;;20.90;77.50;;;;;;5095941;28;20027;-68
2023/10/13 15:07:17;;;;;;;11.55;5.55;;;20.90;77.60;;;;;;5091396;28;20036;-68
2023/10/13 15:09:43;;;;;;;13.18;5.80;;;20.90;77.60;;;;;;5088013;28;20219;-67
2023/10/13 15:12:10;;;;;;;11.65;5.55;;;20.90;77.70;;;;;;5085639;28;20031;-67
2023/10/13 15:14:43;;;;;;;16.52;6.00;;;20.90;77.80;;;;;;5085849;28;20028;-68
2023/10/13 15:17:10;;;;;;;10.55;5.45;;;20.90;77.90;;;;;;5088495;28;20048;-68
2023/10/13 15:19:38;;;;;;;14.48;6.22;;;20.80;77.90;;;;;;5087223;28;20090;-68
2023/10/13 15:22:08;;;;;;;13.35;5.57;;;20.80;77.90;;;;;;5087374;28;20048;-67
2023/10/13 15:24:45;;;;;;;13.55;5.60;;;20.80;78.00;;;;;;5088508;28;20028;-67
2023/10/13 15:27:11;;;;;;;13.20;5.32;;;20.80;78.10;;;;;;5089153;28;20135;-67
2023/10/13 15:29:37;;;;;;;11.20;5.45;;;20.80;78.20;;;;;;5088464;28;20178;-68
2023/10/13 15:32:41;;;;;;;16.58;5.78;;;20.80;78.40;;;;;;5090069;28;20464;-67
2023/10/13 15:34:51;;;;;;;12.48;5.90;;;20.70;78.60;;;;;;5088414;28;20036;-67
2023/10/13 15:37:16;;;;;;;12.95;5.32;;;20.70;78.80;;;;;;5088944;28;20039;-67
2023/10/13 15:39:42;;;;;;;11.52;5.55;;;20.70;78.90;;;;;;5085832;28;20081;-67
2023/10/13 15:42:09;;;;;;;11.63;5.10;;;20.70;79.10;;;;;;5087452;28;20418;-67
2023/10/13 15:44:35;;;;;;;16.42;5.53;;;20.60;79.20;;;;;;5086677;28;20123;-67
2023/10/13 15:47:01;;;;;;;9.40;5.45;;;20.60;79.50;;;;;;5085733;28;20115;-67
2023/10/13 15:49:29;;;;;;;13.25;5.45;;;20.60;79.70;;;;;;5086991;28;20036;-68
2023/10/13 15:51:57;;;;;;;11.88;5.30;;;20.50;79.80;;;;;;5083514;28;20172;-68
2023/10/13 15:54:23;;;;;;;15.85;5.95;;;20.50;80.00;;;;;;5085026;28;20028;-67
2023/10/13 15:56:54;;;;;;;11.30;5.18;;;20.50;80.20;;;;;;5087137;28;20371;-68
2023/10/13 15:59:22;;;;;;;14.55;5.57;;;20.50;80.30;;;;;;5084500;28;20020;-67
2023/10/13 16:01:48;;;;;;;14.73;6.03;;;20.40;80.50;;;;;;5085289;28;20074;-68
2023/10/13 16:04:15;;;;;;;13.20;5.68;;;20.40;80.60;;;;;;5086361;28;20405;-69
2023/10/13 16:06:41;;;;;;;12.02;6.22;;;20.40;80.70;;;;;;5084118;28;20027;-68
2023/10/13 16:09:22;;;;;;;11.70;6.13;;;20.30;80.80;;;;;;5086635;28;20055;-69
2023/10/13 16:11:49;;;;;;;12.50;5.90;;;20.30;80.90;;;;;;5091611;28;20034;-69
2023/10/13 16:14:18;;;;;;;12.23;6.07;;;20.30;81.00;;;;;;5089362;28;20044;-69
2023/10/13 16:16:49;;;;;;;10.65;6.00;;;20.30;81.10;;;;;;5091724;28;20479;-68
2023/10/13 16:19:22;;;;;;;14.00;5.90;;;20.30;81.10;;;;;;5089748;28;20016;-68
2023/10/13 16:21:49;;;;;;;13.35;6.10;;;20.30;81.00;;;;;;5084106;28;20310;-69
2023/10/13 16:24:18;;;;;;;14.82;6.15;;;20.30;80.90;;;;;;5090343;28;20043;-68
2023/10/13 16:26:55;;;;;;;13.98;5.85;;;20.30;80.80;;;;;;5091508;28;20459;-68
2023/10/13 16:29:22;;;;;;;13.88;5.75;;;20.30;80.60;;;;;;5095753;28;20114;-69
2023/10/13 16:31:48;;;;;;;12.23;5.75;;;20.30;80.60;;;;;;5076133;28;20040;-70
2023/10/13 16:34:15;;;;;;;14.95;6.47;;;20.20;80.50;;;;;;5081072;28;20112;-68